Time;durP1;ratioP1;P1;durP2;ratioP2;P2;SDS_P1;SDS_P2;PMS_P1;PMS_P2;Temp;Humidity;BMP_temperature;BMP_pressure;BME280_temperature;BME280_humidity;BME280_pressure;Samples;Min_cycle;Max_cycle;Signal;HPM_P1;HPM_P2
2023/06/07 00:01:08;;;;;;;13.95;6.47;;;12.50;99.90;;;;;;5023888;28;20037;-61
2023/06/07 00:03:34;;;;;;;16.95;6.97;;;12.50;99.90;;;;;;5024009;28;20457;-53
2023/06/07 00:06:03;;;;;;;20.25;6.20;;;12.50;99.90;;;;;;5022469;28;20048;-53
2023/06/07 00:08:29;;;;;;;20.17;7.05;;;12.50;99.90;;;;;;5023601;28;20395;-57
2023/06/07 00:10:58;;;;;;;16.05;6.40;;;12.40;99.90;;;;;;5022683;28;20038;-55
2023/06/07 00:13:24;;;;;;;15.48;5.93;;;12.40;99.90;;;;;;5023061;28;20033;-59
2023/06/07 00:15:50;;;;;;;21.30;6.88;;;12.40;99.90;;;;;;5023549;28;20057;-57
2023/06/07 00:18:19;;;;;;;16.38;6.30;;;12.30;99.90;;;;;;5023379;28;20049;-58
2023/06/07 00:20:46;;;;;;;16.42;6.85;;;12.40;99.90;;;;;;5022643;28;20052;-56
2023/06/07 00:23:15;;;;;;;19.95;6.45;;;12.40;99.90;;;;;;5005644;28;20150;-60
2023/06/07 00:25:42;;;;;;;18.23;6.30;;;12.40;99.90;;;;;;5022420;28;20208;-60
2023/06/07 00:28:07;;;;;;;19.27;6.57;;;12.30;99.90;;;;;;5023011;28;20045;-49
2023/06/07 00:30:33;;;;;;;17.13;6.07;;;12.40;99.90;;;;;;5023002;28;20064;-55
2023/06/07 00:32:58;;;;;;;13.32;5.30;;;12.30;99.90;;;;;;5023208;28;20049;-59
2023/06/07 00:35:24;;;;;;;17.77;6.88;;;12.30;99.90;;;;;;5023096;28;20037;-54
2023/06/07 00:37:50;;;;;;;15.60;5.45;;;12.30;99.90;;;;;;5022493;28;20463;-59
2023/06/07 00:40:15;;;;;;;14.93;5.13;;;12.30;99.90;;;;;;5023131;28;20051;-55
2023/06/07 00:42:42;;;;;;;16.67;5.40;;;12.30;99.90;;;;;;5022067;28;20033;-56
2023/06/07 00:45:08;;;;;;;13.35;5.18;;;12.30;99.90;;;;;;5004384;28;20799;-56
2023/06/07 00:47:37;;;;;;;16.70;5.55;;;12.30;99.90;;;;;;5005029;28;20045;-56
2023/06/07 00:50:03;;;;;;;17.75;5.65;;;12.30;99.90;;;;;;5022790;28;20041;-59
2023/06/07 00:52:29;;;;;;;14.38;5.50;;;12.30;99.90;;;;;;5004480;28;20511;-50
2023/06/07 00:54:55;;;;;;;13.25;5.93;;;12.30;99.90;;;;;;5022510;28;20252;-50
2023/06/07 00:57:21;;;;;;;17.65;7.43;;;12.30;99.90;;;;;;5022247;28;20041;-51
2023/06/07 00:59:47;;;;;;;17.92;6.72;;;12.30;99.90;;;;;;5022333;28;20042;-55
2023/06/07 01:02:16;;;;;;;17.25;7.00;;;12.50;99.90;;;;;;5022425;28;20115;-57
2023/06/07 01:04:42;;;;;;;18.08;6.85;;;12.30;99.90;;;;;;5022317;28;20459;-55
2023/06/07 01:07:08;;;;;;;21.05;6.85;;;12.20;99.90;;;;;;5022103;28;20077;-58
2023/06/07 01:09:35;;;;;;;19.25;6.47;;;12.30;99.90;;;;;;5021885;28;20088;-54
2023/06/07 01:12:03;;;;;;;18.70;7.30;;;12.10;99.90;;;;;;5022002;28;20262;-59
2023/06/07 01:14:31;;;;;;;15.95;6.55;;;12.10;99.90;;;;;;5041600;28;20064;-54
2023/06/07 01:16:58;;;;;;;16.73;6.68;;;12.10;99.90;;;;;;5041845;28;20233;-53
2023/06/07 01:19:29;;;;;;;20.60;6.93;;;12.10;99.90;;;;;;5042285;28;20127;-56
2023/06/07 01:22:05;;;;;;;22.80;7.57;;;12.10;99.90;;;;;;5042684;28;20041;-61
2023/06/07 01:24:31;;;;;;;19.15;7.75;;;12.10;99.90;;;;;;5041883;28;20128;-60
2023/06/07 01:26:59;;;;;;;21.35;6.85;;;12.00;99.90;;;;;;5040729;28;20132;-54
2023/06/07 01:29:28;;;;;;;19.65;7.10;;;12.20;99.90;;;;;;5042432;28;20041;-59
2023/06/07 01:31:56;;;;;;;21.67;7.72;;;12.10;99.90;;;;;;5041775;28;20052;-55
2023/06/07 01:34:23;;;;;;;19.75;7.13;;;12.00;99.90;;;;;;5042134;28;20067;-55
2023/06/07 01:36:50;;;;;;;17.23;7.55;;;12.00;99.90;;;;;;5041649;28;20057;-59
2023/06/07 01:39:18;;;;;;;20.25;7.50;;;12.00;99.90;;;;;;5041465;28;20429;-54
2023/06/07 01:41:45;;;;;;;22.33;6.80;;;12.00;99.90;;;;;;5040576;28;20095;-59
2023/06/07 01:44:13;;;;;;;18.23;6.50;;;11.90;99.90;;;;;;5041827;28;20091;-49
2023/06/07 01:46:39;;;;;;;16.08;6.10;;;11.90;99.90;;;;;;5040507;28;20049;-59
2023/06/07 01:49:06;;;;;;;16.27;6.13;;;12.10;99.90;;;;;;5042020;28;20049;-49
2023/06/07 01:51:32;;;;;;;21.73;6.60;;;11.90;99.90;;;;;;5041561;28;20045;-54
2023/06/07 01:53:59;;;;;;;22.88;6.38;;;12.00;99.90;;;;;;5041710;28;20407;-60
2023/06/07 01:57:04;;;;;;;18.50;6.13;;;12.00;99.90;;;;;;5040851;28;20053;-50
2023/06/07 02:00:00;;;;;;;15.30;5.00;;;11.90;99.90;;;;;;5003562;28;20057;-52
2023/06/07 02:02:46;;;;;;;17.23;5.35;;;11.90;99.90;;;;;;5041010;28;20055;-59
2023/06/07 02:05:15;;;;;;;15.35;5.35;;;11.90;99.90;;;;;;5041059;28;20076;-55
2023/06/07 02:07:48;;;;;;;12.25;4.72;;;11.90;99.90;;;;;;5041130;28;20123;-50
2023/06/07 02:10:17;;;;;;;21.77;5.70;;;11.90;99.90;;;;;;5040843;28;20041;-58
2023/06/07 02:12:44;;;;;;;23.63;6.20;;;11.90;99.90;;;;;;5041189;28;20041;-56
2023/06/07 02:15:10;;;;;;;17.45;5.90;;;12.90;99.90;;;;;;5040849;28;20041;-53
2023/06/07 02:17:51;;;;;;;21.73;5.90;;;12.00;99.90;;;;;;5041232;28;20107;-54
2023/06/07 02:20:19;;;;;;;14.07;5.10;;;12.00;99.90;;;;;;5041016;28;20052;-59
2023/06/07 02:22:45;;;;;;;17.33;5.38;;;12.00;99.90;;;;;;5041103;28;20041;-53
2023/06/07 02:25:10;;;;;;;17.45;5.63;;;12.00;99.90;;;;;;5040247;28;20071;-58
2023/06/07 02:27:36;;;;;;;15.80;4.70;;;12.00;99.90;;;;;;5041366;28;20124;-59
2023/06/07 02:30:03;;;;;;;18.08;4.68;;;12.00;99.90;;;;;;5040653;28;20107;-54
2023/06/07 02:32:29;;;;;;;11.45;4.50;;;12.10;99.90;;;;;;5033167;28;20488;-61
2023/06/07 02:34:54;;;;;;;15.07;4.90;;;12.10;99.90;;;;;;5041202;28;20136;-58
2023/06/07 02:37:20;;;;;;;21.48;5.20;;;12.10;99.90;;;;;;5040168;28;20081;-59
2023/06/07 02:39:46;;;;;;;18.00;5.40;;;12.10;99.90;;;;;;5041367;28;20201;-60
2023/06/07 02:42:11;;;;;;;19.13;4.90;;;12.10;99.90;;;;;;5040078;28;20073;-55
2023/06/07 02:44:37;;;;;;;14.77;4.90;;;12.10;99.90;;;;;;5041155;28;20045;-60
2023/06/07 02:47:03;;;;;;;14.90;4.60;;;12.20;99.90;;;;;;5039100;28;20057;-51
2023/06/07 02:49:28;;;;;;;16.92;4.68;;;12.10;99.90;;;;;;5041248;28;20110;-58
2023/06/07 02:51:54;;;;;;;19.25;5.32;;;12.10;99.90;;;;;;5041048;28;20408;-58
2023/06/07 02:54:20;;;;;;;22.33;5.47;;;12.10;99.90;;;;;;5032113;28;20072;-55
2023/06/07 02:56:46;;;;;;;16.20;4.25;;;12.10;99.90;;;;;;5038787;28;20080;-60
2023/06/07 02:59:11;;;;;;;14.18;5.10;;;12.10;99.90;;;;;;5041379;28;20049;-50
2023/06/07 03:01:37;;;;;;;16.83;5.95;;;12.10;99.90;;;;;;5043137;28;20356;-47
2023/06/07 03:04:04;;;;;;;17.63;6.60;;;12.20;99.90;;;;;;5044552;28;20057;-60
2023/06/07 03:06:29;;;;;;;18.10;5.93;;;12.20;99.90;;;;;;5043416;28;20080;-53
2023/06/07 03:08:56;;;;;;;19.13;6.47;;;12.20;99.90;;;;;;5044250;28;20088;-61
2023/06/07 03:11:22;;;;;;;16.45;6.55;;;12.20;99.90;;;;;;5043149;28;20377;-56
2023/06/07 03:13:48;;;;;;;16.30;5.75;;;12.20;99.90;;;;;;5044303;28;20052;-58
2023/06/07 03:16:14;;;;;;;20.70;6.03;;;12.20;99.90;;;;;;5044123;28;20485;-56
2023/06/07 03:18:40;;;;;;;17.70;5.35;;;12.20;99.90;;;;;;5043208;28;20107;-54
2023/06/07 03:21:06;;;;;;;16.45;5.15;;;12.20;99.90;;;;;;5044148;28;20325;-60
2023/06/07 03:23:31;;;;;;;16.75;5.10;;;12.20;99.90;;;;;;5043041;28;20127;-58
2023/06/07 03:25:58;;;;;;;14.63;4.78;;;12.20;99.90;;;;;;5041861;28;20687;-55
2023/06/07 03:28:24;;;;;;;19.20;5.00;;;12.20;99.90;;;;;;5042581;28;20053;-60
2023/06/07 03:30:50;;;;;;;16.35;4.80;;;12.20;99.90;;;;;;5044095;28;20502;-54
2023/06/07 03:33:16;;;;;;;14.95;5.25;;;12.30;99.90;;;;;;5042861;28;20511;-57
2023/06/07 03:35:44;;;;;;;16.17;5.03;;;12.30;99.90;;;;;;5043395;28;20068;-57
2023/06/07 03:38:10;;;;;;;16.42;4.13;;;12.20;99.90;;;;;;5042635;28;20041;-61
2023/06/07 03:40:35;;;;;;;14.27;4.70;;;12.20;99.90;;;;;;5043024;28;20041;-55
2023/06/07 03:43:01;;;;;;;14.20;4.18;;;12.20;99.90;;;;;;5043473;28;20237;-58
2023/06/07 03:45:27;;;;;;;19.02;4.57;;;12.20;99.90;;;;;;5044039;28;20037;-50
2023/06/07 03:47:53;;;;;;;14.80;4.45;;;12.30;99.90;;;;;;5043732;28;20041;-56
2023/06/07 03:50:20;;;;;;;12.60;4.30;;;12.30;99.90;;;;;;5043644;28;20044;-50
2023/06/07 03:52:45;;;;;;;21.13;4.68;;;12.40;99.90;;;;;;5043863;28;20049;-60
2023/06/07 03:55:11;;;;;;;19.65;4.75;;;12.40;99.90;;;;;;5043076;28;20339;-57
2023/06/07 03:57:37;;;;;;;21.67;5.40;;;12.50;99.90;;;;;;5043804;28;20520;-57
2023/06/07 04:00:11;;;;;;;20.70;4.60;;;12.60;99.90;;;;;;5042307;28;20102;-53
2023/06/07 04:02:37;;;;;;;12.15;3.70;;;12.40;99.90;;;;;;5043816;28;20037;-56
2023/06/07 04:05:03;;;;;;;14.40;4.30;;;12.40;99.90;;;;;;5043436;28;20495;-61
2023/06/07 04:07:30;;;;;;;12.30;4.20;;;12.50;99.90;;;;;;5042825;28;20052;-56
2023/06/07 04:09:55;;;;;;;13.48;4.32;;;12.50;99.90;;;;;;5042163;28;20048;-54
2023/06/07 04:12:21;;;;;;;14.32;4.63;;;12.50;99.90;;;;;;5043524;28;20112;-60
2023/06/07 04:14:46;;;;;;;11.70;4.00;;;12.50;99.90;;;;;;5042639;28;20499;-50
2023/06/07 04:17:12;;;;;;;12.75;3.90;;;12.50;99.90;;;;;;5041597;28;20045;-60
2023/06/07 04:19:38;;;;;;;12.90;4.05;;;12.50;99.90;;;;;;5043455;28;20087;-59
2023/06/07 04:22:04;;;;;;;11.88;4.22;;;12.50;99.90;;;;;;5043037;28;20116;-53
2023/06/07 04:24:31;;;;;;;14.13;3.80;;;12.50;99.90;;;;;;5043403;28;20060;-57
2023/06/07 04:26:57;;;;;;;14.82;4.10;;;12.60;99.90;;;;;;5042432;28;20088;-55
2023/06/07 04:29:25;;;;;;;16.80;4.10;;;12.50;99.90;;;;;;5043109;28;20428;-61
2023/06/07 04:31:52;;;;;;;12.45;4.22;;;12.50;99.90;;;;;;5042416;28;20045;-55
2023/06/07 04:34:21;;;;;;;14.23;3.90;;;12.50;99.90;;;;;;5042947;28;20215;-60
2023/06/07 04:36:49;;;;;;;16.13;4.43;;;12.50;99.90;;;;;;5042443;28;20049;-55
2023/06/07 04:39:15;;;;;;;10.95;3.67;;;12.50;99.90;;;;;;5042573;28;20056;-56
2023/06/07 04:41:40;;;;;;;17.17;3.80;;;12.40;99.90;;;;;;5042047;28;20040;-55
2023/06/07 04:44:06;;;;;;;17.27;4.55;;;12.50;99.90;;;;;;5042864;28;20532;-59
2023/06/07 04:46:32;;;;;;;12.63;3.95;;;12.60;99.90;;;;;;5042349;28;20404;-58
2023/06/07 04:48:58;;;;;;;14.95;3.85;;;12.60;99.90;;;;;;5042192;28;20041;-55
2023/06/07 04:51:26;;;;;;;12.38;4.40;;;12.70;99.90;;;;;;5042673;28;20141;-58
2023/06/07 04:53:58;;;;;;;16.00;4.57;;;12.90;99.90;;;;;;5042340;28;20167;-56
2023/06/07 04:56:25;;;;;;;14.57;4.15;;;13.00;99.90;;;;;;5041788;28;20488;-50
2023/06/07 04:58:52;;;;;;;18.20;4.45;;;13.10;99.90;;;;;;5040706;28;20060;-56
2023/06/07 05:01:18;;;;;;;16.38;4.03;;;13.10;99.90;;;;;;5040598;28;20179;-56
2023/06/07 05:03:43;;;;;;;14.40;4.13;;;13.10;99.90;;;;;;5041845;28;20123;-58
2023/06/07 05:06:09;;;;;;;17.65;4.60;;;13.10;99.90;;;;;;5041193;28;20045;-59
2023/06/07 05:08:35;;;;;;;12.25;4.00;;;13.10;99.90;;;;;;5042248;28;20061;-57
2023/06/07 05:11:01;;;;;;;16.42;5.25;;;13.10;99.90;;;;;;5039510;28;20036;-59
2023/06/07 05:13:26;;;;;;;16.17;4.50;;;13.00;99.90;;;;;;5042411;28;20037;-58
2023/06/07 05:15:53;;;;;;;14.05;4.57;;;12.90;99.90;;;;;;5042251;28;20076;-55
2023/06/07 05:18:19;;;;;;;15.38;4.97;;;13.00;99.90;;;;;;5041921;28;20045;-59
2023/06/07 05:20:46;;;;;;;14.48;6.20;;;13.00;99.90;;;;;;5041548;28;20041;-53
2023/06/07 05:23:16;;;;;;;14.60;5.75;;;13.10;99.90;;;;;;5041967;28;20025;-58
2023/06/07 05:25:45;;;;;;;14.70;5.00;;;13.10;99.90;;;;;;5040347;28;20068;-56
2023/06/07 05:28:12;;;;;;;18.05;6.15;;;13.00;99.90;;;;;;5041947;28;20047;-50
2023/06/07 05:30:38;;;;;;;13.90;5.28;;;13.10;99.90;;;;;;5041696;28;20558;-57
2023/06/07 05:33:05;;;;;;;14.60;5.55;;;13.20;99.90;;;;;;5041027;28;20108;-57
2023/06/07 05:35:31;;;;;;;13.95;4.95;;;13.20;99.90;;;;;;5041501;28;20041;-55
2023/06/07 05:37:56;;;;;;;18.67;4.68;;;13.20;99.90;;;;;;5041758;28;20052;-60
2023/06/07 05:40:22;;;;;;;12.55;4.00;;;13.20;99.90;;;;;;5040883;28;20399;-56
2023/06/07 05:42:50;;;;;;;16.40;4.45;;;13.30;99.90;;;;;;5039530;28;20133;-57
2023/06/07 05:45:16;;;;;;;19.88;4.65;;;13.30;99.90;;;;;;5041977;28;20057;-59
2023/06/07 05:47:43;;;;;;;18.63;4.70;;;13.40;99.90;;;;;;5041445;28;20560;-58
2023/06/07 05:50:10;;;;;;;14.75;4.20;;;13.60;99.90;;;;;;5041407;28;20053;-60
2023/06/07 05:52:37;;;;;;;12.93;4.10;;;13.70;99.90;;;;;;5041318;28;20092;-55
2023/06/07 05:55:03;;;;;;;20.23;4.50;;;13.90;99.90;;;;;;5040488;28;20052;-60
2023/06/07 05:57:29;;;;;;;11.52;4.25;;;13.80;99.90;;;;;;5041316;28;20373;-55
2023/06/07 05:59:55;;;;;;;15.02;5.57;;;13.70;99.90;;;;;;5041137;28;20360;-53
2023/06/07 06:02:23;;;;;;;12.55;4.45;;;13.70;99.90;;;;;;5041525;28;20045;-57
2023/06/07 06:04:48;;;;;;;13.10;4.45;;;13.70;99.90;;;;;;5041228;28;20053;-55
2023/06/07 06:07:17;;;;;;;11.68;4.03;;;13.80;99.90;;;;;;5041081;28;20428;-60
2023/06/07 06:09:42;;;;;;;14.10;4.25;;;13.80;99.90;;;;;;5040958;28;20072;-57
2023/06/07 06:12:09;;;;;;;11.38;3.60;;;14.00;99.90;;;;;;5041674;28;20037;-61
2023/06/07 06:14:34;;;;;;;12.00;3.40;;;14.30;99.90;;;;;;5040534;28;20049;-55
2023/06/07 06:17:00;;;;;;;13.35;4.00;;;14.30;99.90;;;;;;5041141;28;20127;-57
2023/06/07 06:19:25;;;;;;;17.33;4.47;;;14.30;99.90;;;;;;5041390;28;20048;-56
2023/06/07 06:21:51;;;;;;;12.05;3.65;;;14.60;99.90;;;;;;5040453;28;20041;-58
2023/06/07 06:24:17;;;;;;;12.73;3.75;;;14.30;99.90;;;;;;5041257;28;20056;-55
2023/06/07 06:26:42;;;;;;;10.95;3.53;;;14.70;99.90;;;;;;5041080;28;20033;-53
2023/06/07 06:29:08;;;;;;;12.88;3.58;;;14.70;99.90;;;;;;5041302;28;20099;-60
2023/06/07 06:31:33;;;;;;;14.27;3.80;;;14.80;99.90;;;;;;5041079;28;20387;-57
2023/06/07 06:33:59;;;;;;;14.88;3.78;;;14.80;99.90;;;;;;5044131;28;20144;-56
2023/06/07 06:36:26;;;;;;;12.05;3.55;;;14.70;99.90;;;;;;5045346;28;20064;-55
2023/06/07 06:38:52;;;;;;;13.75;4.18;;;14.80;99.90;;;;;;5044238;28;20377;-52
2023/06/07 06:41:17;;;;;;;9.15;3.53;;;14.90;99.90;;;;;;5026530;28;20051;-57
2023/06/07 06:43:43;;;;;;;13.65;3.85;;;14.90;99.90;;;;;;5044032;28;20084;-57
2023/06/07 06:46:09;;;;;;;12.98;3.55;;;15.00;99.90;;;;;;5044272;28;20377;-57
2023/06/07 06:48:36;;;;;;;15.25;3.80;;;15.80;99.90;;;;;;5045316;28;20037;-60
2023/06/07 06:51:01;;;;;;;16.05;4.80;;;16.50;99.90;;;;;;5044828;28;20045;-53
2023/06/07 06:53:27;;;;;;;12.50;3.88;;;17.40;99.90;;;;;;5044819;28;20059;-48
2023/06/07 06:55:52;;;;;;;11.32;3.90;;;17.00;99.90;;;;;;5044059;28;20033;-56
2023/06/07 06:58:19;;;;;;;11.65;4.07;;;17.00;99.90;;;;;;5043064;28;20052;-56
2023/06/07 07:00:44;;;;;;;13.25;4.10;;;17.00;99.90;;;;;;5045504;28;20542;-61
2023/06/07 07:03:10;;;;;;;14.63;4.10;;;17.10;99.90;;;;;;5043966;28;20077;-56
2023/06/07 07:05:36;;;;;;;14.10;3.63;;;17.00;99.90;;;;;;5043229;28;20751;-60
2023/06/07 07:08:03;;;;;;;14.60;3.80;;;16.80;99.90;;;;;;5044499;28;20111;-61
2023/06/07 07:10:28;;;;;;;13.93;4.13;;;16.50;99.90;;;;;;5042781;28;20037;-58
2023/06/07 07:12:54;;;;;;;11.40;3.63;;;16.70;99.90;;;;;;5044592;28;20483;-50
2023/06/07 07:15:20;;;;;;;12.05;4.00;;;17.30;99.90;;;;;;5042872;28;20048;-54
2023/06/07 07:17:47;;;;;;;13.73;4.05;;;17.40;99.90;;;;;;5044623;28;20742;-60
2023/06/07 07:20:14;;;;;;;13.25;3.55;;;17.60;99.90;;;;;;5043966;28;20458;-56
2023/06/07 07:22:40;;;;;;;10.50;3.67;;;18.00;99.90;;;;;;5042909;28;20045;-60
2023/06/07 07:25:06;;;;;;;8.93;3.63;;;18.10;99.90;;;;;;5043325;28;20063;-57
2023/06/07 07:27:33;;;;;;;10.35;3.17;;;18.50;99.90;;;;;;5043415;28;20295;-55
2023/06/07 07:29:59;;;;;;;9.70;3.58;;;18.60;99.90;;;;;;5044468;28;20391;-61
2023/06/07 07:32:24;;;;;;;13.43;3.53;;;18.50;99.90;;;;;;5044347;28;20044;-56
2023/06/07 07:34:50;;;;;;;8.23;3.33;;;18.50;99.90;;;;;;5043688;28;20045;-58
2023/06/07 07:37:16;;;;;;;12.40;4.18;;;18.70;99.90;;;;;;5044255;28;20132;-57
2023/06/07 07:39:41;;;;;;;11.95;3.88;;;18.60;99.90;;;;;;5043223;28;20512;-59
2023/06/07 07:42:07;;;;;;;10.23;3.72;;;18.60;99.90;;;;;;5042746;28;20091;-60
2023/06/07 07:44:34;;;;;;;11.93;3.05;;;18.60;99.90;;;;;;5042744;28;20056;-55
2023/06/07 07:47:00;;;;;;;12.88;3.15;;;18.70;99.90;;;;;;5043738;28;20098;-62
2023/06/07 07:49:25;;;;;;;9.95;3.20;;;18.70;99.70;;;;;;5043943;28;20132;-57
2023/06/07 07:51:51;;;;;;;7.78;3.08;;;18.80;99.60;;;;;;5043326;28;20434;-58
2023/06/07 07:54:17;;;;;;;9.75;3.03;;;18.90;99.50;;;;;;5043365;28;20048;-58
2023/06/07 07:56:43;;;;;;;8.02;3.67;;;19.00;99.10;;;;;;5043549;28;20397;-55
2023/06/07 07:59:09;;;;;;;9.00;3.33;;;19.20;99.00;;;;;;5043403;28;20041;-58
2023/06/07 08:01:35;;;;;;;10.50;3.63;;;20.00;99.10;;;;;;5043836;28;20044;-58
2023/06/07 08:04:00;;;;;;;9.35;3.17;;;19.60;98.40;;;;;;5042994;28;20451;-55
2023/06/07 08:06:26;;;;;;;9.60;3.47;;;19.50;98.40;;;;;;5043494;28;20102;-61
2023/06/07 08:08:52;;;;;;;13.50;4.10;;;19.50;98.80;;;;;;5042653;28;20063;-53
2023/06/07 08:11:17;;;;;;;9.40;4.28;;;19.60;98.50;;;;;;5042712;28;20041;-62
2023/06/07 08:13:43;;;;;;;11.98;3.92;;;19.50;98.70;;;;;;5043499;28;20049;-56
2023/06/07 08:16:09;;;;;;;11.70;3.67;;;19.40;98.60;;;;;;5042528;28;20614;-54
2023/06/07 08:18:34;;;;;;;10.60;4.28;;;19.30;98.40;;;;;;5043189;28;20518;-56
2023/06/07 08:21:00;;;;;;;11.43;4.22;;;19.20;98.50;;;;;;5043224;28;20453;-53
2023/06/07 08:23:26;;;;;;;7.43;3.30;;;19.20;98.60;;;;;;5043503;28;20043;-61
2023/06/07 08:25:51;;;;;;;9.85;2.83;;;19.20;98.40;;;;;;5041793;28;20056;-55
2023/06/07 08:28:17;;;;;;;10.82;2.95;;;19.20;98.20;;;;;;5043543;28;20045;-56
2023/06/07 08:30:43;;;;;;;9.55;3.03;;;19.30;98.40;;;;;;5042916;28;20029;-55
2023/06/07 08:33:08;;;;;;;12.02;3.10;;;19.20;98.50;;;;;;5042655;28;20052;-58
2023/06/07 08:35:34;;;;;;;10.10;3.25;;;19.40;98.50;;;;;;5043052;28;20127;-60
2023/06/07 08:38:00;;;;;;;8.63;3.50;;;19.50;98.40;;;;;;5043186;28;20148;-61
2023/06/07 08:40:26;;;;;;;7.95;3.15;;;19.50;98.00;;;;;;5041901;28;20404;-54
2023/06/07 08:42:52;;;;;;;9.50;3.22;;;19.40;98.30;;;;;;5043186;28;20051;-61
2023/06/07 08:45:17;;;;;;;16.33;3.92;;;19.40;98.30;;;;;;5042978;28;20041;-57
2023/06/07 08:47:46;;;;;;;10.73;3.70;;;19.70;98.20;;;;;;5042347;28;20455;-60
2023/06/07 08:50:13;;;;;;;7.32;3.03;;;19.80;98.10;;;;;;5042478;28;20044;-59
2023/06/07 08:52:41;;;;;;;7.53;3.30;;;19.90;98.10;;;;;;5042562;28;20128;-61
2023/06/07 08:55:12;;;;;;;6.78;3.03;;;20.10;98.00;;;;;;5041705;28;20047;-57
2023/06/07 08:57:39;;;;;;;7.43;3.45;;;20.40;97.80;;;;;;5034971;28;20048;-60
2023/06/07 09:00:08;;;;;;;7.10;3.65;;;20.50;97.80;;;;;;5042345;28;20045;-52
2023/06/07 09:02:34;;;;;;;9.45;3.28;;;20.70;97.60;;;;;;5042421;28;20041;-58
2023/06/07 09:05:05;;;;;;;11.90;3.25;;;20.80;97.60;;;;;;5041709;28;20388;-54
2023/06/07 09:07:32;;;;;;;6.72;3.30;;;20.90;97.50;;;;;;5042275;28;20103;-58
2023/06/07 09:09:58;;;;;;;10.07;3.40;;;21.10;97.20;;;;;;5041084;28;20053;-57
2023/06/07 09:12:23;;;;;;;7.18;3.00;;;21.20;96.80;;;;;;5042378;28;20044;-57
2023/06/07 09:14:50;;;;;;;10.93;3.00;;;21.40;96.10;;;;;;5042827;28;20052;-54
2023/06/07 09:17:16;;;;;;;8.93;2.90;;;21.30;95.90;;;;;;5042195;28;20231;-56
2023/06/07 09:19:42;;;;;;;8.32;2.70;;;21.30;95.50;;;;;;5041310;28;20111;-49
2023/06/07 09:22:14;;;;;;;9.63;3.50;;;21.40;96.00;;;;;;5039064;28;20044;-56
2023/06/07 09:24:40;;;;;;;11.73;3.30;;;21.40;95.60;;;;;;5041238;28;20072;-49
2023/06/07 09:27:08;;;;;;;11.20;3.85;;;21.60;95.80;;;;;;5041514;28;20087;-60
2023/06/07 09:29:43;;;;;;;10.10;3.83;;;21.70;95.70;;;;;;5041658;28;20469;-53
2023/06/07 09:32:24;;;;;;;11.90;3.42;;;22.00;95.70;;;;;;5041805;28;20091;-55
2023/06/07 09:34:52;;;;;;;14.63;3.35;;;22.10;94.40;;;;;;5041872;28;20040;-59
2023/06/07 09:37:20;;;;;;;8.95;2.90;;;22.00;95.10;;;;;;5042037;28;20412;-52
2023/06/07 09:39:50;;;;;;;8.82;2.80;;;22.00;95.30;;;;;;5040629;28;20057;-59
2023/06/07 09:42:17;;;;;;;9.98;3.47;;;22.20;95.30;;;;;;5041470;28;20056;-54
2023/06/07 09:44:43;;;;;;;8.95;3.05;;;22.30;94.90;;;;;;5041865;28;20676;-52
2023/06/07 09:47:22;;;;;;;10.18;3.67;;;22.50;94.90;;;;;;5041015;28;20041;-55
2023/06/07 09:49:48;;;;;;;11.82;3.25;;;22.60;94.00;;;;;;5041838;28;20313;-54
2023/06/07 09:52:15;;;;;;;11.02;3.78;;;22.60;94.80;;;;;;5041753;28;20044;-54
2023/06/07 09:54:43;;;;;;;7.90;3.30;;;22.70;94.50;;;;;;5040208;28;20071;-56
2023/06/07 09:57:24;;;;;;;11.57;3.80;;;22.90;94.30;;;;;;5041918;28;20044;-52
2023/06/07 10:00:13;;;;;;;11.68;3.70;;;23.00;93.80;;;;;;5041309;28;20045;-51
2023/06/07 10:02:39;;;;;;;12.05;4.07;;;22.90;93.40;;;;;;5041434;28;20041;-56
2023/06/07 10:05:04;;;;;;;9.65;3.28;;;22.80;94.20;;;;;;5040070;28;20088;-58
2023/06/07 10:07:37;;;;;;;10.50;3.42;;;22.90;93.90;;;;;;5040396;28;20068;-59
2023/06/07 10:10:03;;;;;;;11.90;3.50;;;22.90;93.90;;;;;;5040736;28;20265;-58
2023/06/07 10:12:31;;;;;;;10.43;3.80;;;22.80;94.20;;;;;;5041230;28;20052;-55
2023/06/07 10:15:01;;;;;;;12.82;3.70;;;22.90;93.90;;;;;;5041644;28;20045;-57
2023/06/07 10:17:35;;;;;;;11.80;3.53;;;23.00;93.60;;;;;;5041339;28;20045;-54
2023/06/07 10:20:04;;;;;;;8.95;3.47;;;23.20;94.10;;;;;;5040694;28;20080;-53
2023/06/07 10:22:36;;;;;;;11.85;3.50;;;23.30;93.90;;;;;;5041387;28;20167;-59
2023/06/07 10:25:16;;;;;;;6.40;3.25;;;23.20;93.80;;;;;;5040860;28;20037;-58
2023/06/07 10:27:51;;;;;;;9.30;3.67;;;23.30;93.40;;;;;;5041633;28;20044;-59
2023/06/07 10:30:18;;;;;;;10.95;3.50;;;23.40;93.60;;;;;;5041253;28;20503;-60
2023/06/07 10:32:46;;;;;;;14.68;3.58;;;23.40;93.90;;;;;;5039082;28;20504;-55
2023/06/07 10:35:12;;;;;;;17.92;4.22;;;23.20;94.00;;;;;;5041248;28;20063;-53
2023/06/07 10:37:40;;;;;;;11.05;3.95;;;23.20;93.70;;;;;;5040571;28;20492;-55
2023/06/07 10:40:14;;;;;;;11.60;3.63;;;23.10;93.70;;;;;;5040168;28;20124;-60
2023/06/07 10:42:43;;;;;;;9.50;3.55;;;23.10;93.60;;;;;;5041356;28;20041;-57
2023/06/07 10:45:14;;;;;;;13.38;3.80;;;23.00;94.00;;;;;;5040812;28;20052;-55
2023/06/07 10:47:40;;;;;;;10.68;3.83;;;23.10;94.00;;;;;;5040540;28;20446;-55
2023/06/07 10:50:06;;;;;;;11.10;3.40;;;23.20;94.20;;;;;;5041268;28;20393;-61
2023/06/07 10:52:32;;;;;;;8.30;3.72;;;23.10;93.90;;;;;;5040985;28;20400;-57
2023/06/07 10:54:58;;;;;;;10.93;4.00;;;23.10;94.00;;;;;;5039581;28;20045;-57
2023/06/07 10:57:37;;;;;;;12.52;4.10;;;23.00;94.10;;;;;;5041412;28;20048;-61
2023/06/07 11:00:30;;;;;;;10.07;3.63;;;23.10;93.60;;;;;;5041096;28;20054;-58
2023/06/07 11:03:06;;;;;;;10.48;3.63;;;23.30;93.00;;;;;;5041154;28;20041;-53
2023/06/07 11:05:53;;;;;;;12.45;4.38;;;23.40;93.50;;;;;;5040381;28;20057;-54
2023/06/07 11:08:30;;;;;;;13.98;4.47;;;23.60;92.90;;;;;;5040691;28;20060;-56
2023/06/07 11:11:01;;;;;;;9.40;3.70;;;23.60;93.00;;;;;;5039958;28;20044;-56
2023/06/07 11:13:46;;;;;;;11.27;3.55;;;23.50;93.60;;;;;;5041166;28;20049;-58
2023/06/07 11:16:24;;;;;;;12.25;4.18;;;23.60;93.70;;;;;;5039709;28;20041;-58
2023/06/07 11:18:55;;;;;;;12.13;4.38;;;23.60;93.20;;;;;;5040630;28;20261;-61
2023/06/07 11:21:21;;;;;;;16.83;4.60;;;23.50;93.70;;;;;;5043404;28;20037;-55
2023/06/07 11:24:10;;;;;;;14.88;4.45;;;23.50;93.70;;;;;;5043555;28;20052;-53
2023/06/07 11:26:36;;;;;;;10.57;4.03;;;23.50;92.80;;;;;;5043083;28;20048;-48
2023/06/07 11:29:03;;;;;;;8.82;4.00;;;23.40;93.60;;;;;;5042916;28;20434;-56
2023/06/07 11:31:28;;;;;;;12.52;4.45;;;23.40;93.60;;;;;;5044666;28;20100;-60
2023/06/07 11:33:54;;;;;;;10.48;4.20;;;23.30;93.70;;;;;;5044347;28;20400;-50
2023/06/07 11:36:21;;;;;;;9.85;4.03;;;23.30;93.60;;;;;;5043240;28;20222;-56
2023/06/07 11:38:52;;;;;;;10.48;3.97;;;23.30;93.70;;;;;;5042975;28;20048;-60
2023/06/07 11:41:18;;;;;;;12.48;4.72;;;23.50;93.30;;;;;;5043798;28;20276;-61
2023/06/07 11:43:45;;;;;;;13.20;4.38;;;23.50;93.80;;;;;;5043415;28;20116;-60
2023/06/07 11:46:13;;;;;;;12.00;4.15;;;23.40;93.60;;;;;;5042234;28;20057;-57
2023/06/07 11:48:39;;;;;;;11.85;4.10;;;23.40;93.60;;;;;;5043945;28;20120;-57
2023/06/07 11:51:05;;;;;;;12.63;4.72;;;23.50;93.50;;;;;;5043103;28;20422;-57
2023/06/07 11:53:31;;;;;;;15.32;4.18;;;23.40;93.70;;;;;;5042507;28;20041;-54
2023/06/07 11:55:58;;;;;;;11.82;4.47;;;23.30;93.80;;;;;;5041809;28;20502;-53
2023/06/07 11:58:24;;;;;;;10.10;4.13;;;23.40;93.60;;;;;;5042897;28;20053;-55
2023/06/07 12:00:50;;;;;;;12.73;4.40;;;23.40;93.60;;;;;;5043598;28;20045;-49
2023/06/07 12:03:19;;;;;;;17.92;4.20;;;23.50;93.50;;;;;;5043574;28;20045;-60
2023/06/07 12:05:45;;;;;;;14.50;4.10;;;23.40;94.00;;;;;;5043916;28;20048;-58
2023/06/07 12:08:16;;;;;;;10.35;4.15;;;23.40;93.90;;;;;;5042941;28;20424;-60
2023/06/07 12:10:45;;;;;;;15.18;4.38;;;23.40;93.40;;;;;;5042512;28;20048;-52
2023/06/07 12:13:12;;;;;;;9.30;3.70;;;23.50;93.20;;;;;;5043463;28;20049;-56
2023/06/07 12:15:48;;;;;;;11.02;4.22;;;23.60;93.30;;;;;;5043137;28;20116;-56
2023/06/07 12:18:15;;;;;;;11.65;4.53;;;23.80;93.10;;;;;;5041465;28;20064;-52
2023/06/07 12:20:42;;;;;;;11.45;4.50;;;24.00;93.30;;;;;;5042727;28;20611;-61
2023/06/07 12:23:09;;;;;;;10.80;3.65;;;24.10;93.10;;;;;;5043252;28;20082;-55
2023/06/07 12:25:35;;;;;;;10.85;3.90;;;24.00;93.50;;;;;;5042357;28;20048;-60
2023/06/07 12:28:09;;;;;;;12.90;4.05;;;24.10;93.20;;;;;;5043219;28;20037;-55
2023/06/07 12:30:37;;;;;;;14.00;4.10;;;24.00;92.10;;;;;;5041647;28;20049;-56
2023/06/07 12:33:03;;;;;;;9.80;4.15;;;23.90;93.10;;;;;;5043296;28;20072;-60
2023/06/07 12:35:40;;;;;;;10.40;4.30;;;23.80;93.10;;;;;;5042565;28;20053;-56
2023/06/07 12:38:10;;;;;;;13.50;4.25;;;23.70;93.00;;;;;;5042989;28;20125;-55
2023/06/07 12:40:36;;;;;;;12.65;4.35;;;23.70;93.20;;;;;;5042779;28;20037;-54